createdAt,value
2018-11-01T00:00:08.365Z,0.00
2018-11-01T00:01:08.431Z,0.00
2018-11-01T00:02:08.473Z,0.00
2018-11-01T00:03:08.500Z,0.00
2018-11-01T00:04:08.550Z,0.00
2018-11-01T00:05:08.590Z,0.00
2018-11-01T00:06:09.451Z,0.00
2018-11-01T00:07:08.716Z,0.00
2018-11-01T00:08:08.752Z,0.00
2018-11-01T00:09:08.774Z,0.00
2018-11-01T00:10:08.822Z,0.00
2018-11-01T00:11:08.869Z,0.00
2018-11-01T00:12:08.932Z,0.00
2018-11-01T00:13:08.960Z,0.00
2018-11-01T00:14:09.026Z,0.00
2018-11-01T00:15:09.077Z,0.00
2018-11-01T00:16:09.103Z,0.00
2018-11-01T00:17:09.154Z,0.00
2018-11-01T00:18:09.189Z,0.00
2018-11-01T00:19:09.259Z,0.00
2018-11-01T00:20:09.289Z,0.00
2018-11-01T00:21:09.340Z,0.00
2018-11-01T00:22:09.455Z,0.00
2018-11-01T00:23:09.425Z,0.00
2018-11-01T00:24:09.485Z,0.00
2018-11-01T00:25:09.509Z,0.00
2018-11-01T00:26:09.556Z,0.00
2018-11-01T00:27:09.600Z,0.00
2018-11-01T00:28:09.647Z,0.00
2018-11-01T00:29:09.834Z,0.00
2018-11-01T00:30:09.744Z,0.00
2018-11-01T00:31:09.791Z,0.00
2018-11-01T00:32:10.421Z,0.00
2018-11-01T00:33:09.882Z,0.00
2018-11-01T00:34:09.938Z,0.00
2018-11-01T00:35:09.987Z,0.00
2018-11-01T00:36:10.012Z,0.00
2018-11-01T00:37:10.055Z,0.00
2018-11-01T00:38:10.111Z,0.00
2018-11-01T00:39:10.149Z,0.00
2018-11-01T00:40:10.218Z,0.00
2018-11-01T00:41:10.239Z,0.00
2018-11-01T00:42:10.285Z,0.00
2018-11-01T00:43:10.341Z,0.00
2018-11-01T00:44:11.421Z,0.00
2018-11-01T00:45:10.451Z,0.00
2018-11-01T00:46:10.489Z,0.00
2018-11-01T00:47:10.941Z,0.00
2018-11-01T00:48:10.567Z,0.00
2018-11-01T00:49:10.605Z,0.00
2018-11-01T00:50:10.649Z,0.00
2018-11-01T00:51:10.736Z,0.00
2018-11-01T00:52:10.750Z,0.00
2018-11-01T00:53:10.791Z,0.00
2018-11-01T00:54:10.843Z,0.00
2018-11-01T00:55:10.875Z,0.00
2018-11-01T00:56:10.944Z,0.00
2018-11-01T00:57:10.994Z,0.00
2018-11-01T00:58:11.013Z,0.00
2018-11-01T00:59:11.184Z,0.00
2018-11-01T01:00:11.099Z,0.00
2018-11-01T01:01:11.149Z,0.00
2018-11-01T01:02:11.211Z,0.00
2018-11-01T01:03:11.248Z,0.00
2018-11-01T01:04:11.286Z,0.00
2018-11-01T01:05:11.330Z,0.00
2018-11-01T01:06:11.366Z,0.00
2018-11-01T01:07:11.439Z,0.00
2018-11-01T01:08:12.239Z,0.00
2018-11-01T01:09:11.513Z,0.00
2018-11-01T01:10:11.553Z,0.00
2018-11-01T01:11:11.598Z,0.00
2018-11-01T01:12:11.681Z,0.00
2018-11-01T01:13:11.686Z,0.00
2018-11-01T01:14:11.729Z,0.00
2018-11-01T01:15:11.778Z,0.00
2018-11-01T01:16:11.843Z,0.00
2018-11-01T01:17:11.890Z,0.00
2018-11-01T01:18:11.931Z,0.00
2018-11-01T01:19:11.959Z,0.00
2018-11-01T01:20:12.016Z,0.00
2018-11-01T01:21:12.050Z,0.00
2018-11-01T01:22:12.100Z,0.00
2018-11-01T01:23:12.166Z,0.00
2018-11-01T01:24:12.184Z,0.00
2018-11-01T01:25:12.231Z,0.00
2018-11-01T01:26:12.275Z,0.00
2018-11-01T01:27:12.314Z,0.00
2018-11-01T01:28:12.381Z,0.00
2018-11-01T01:29:12.426Z,0.00
2018-11-01T01:30:12.458Z,0.00
2018-11-01T01:31:12.514Z,0.00
2018-11-01T01:32:12.541Z,0.00
2018-11-01T01:33:12.592Z,0.00
2018-11-01T01:34:12.667Z,0.00
2018-11-01T01:35:12.679Z,0.00
2018-11-01T01:36:12.741Z,0.00
2018-11-01T01:37:12.766Z,0.00
2018-11-01T01:38:12.844Z,0.00
2018-11-01T01:39:12.857Z,0.00
2018-11-01T01:40:12.901Z,0.00
2018-11-01T01:41:12.964Z,0.00
2018-11-01T01:42:12.993Z,0.00
2018-11-01T01:43:13.044Z,0.00
2018-11-01T01:44:13.085Z,0.00
2018-11-01T01:45:13.139Z,0.00
2018-11-01T01:46:13.194Z,0.00
2018-11-01T01:47:13.233Z,0.00
2018-11-01T01:48:13.265Z,0.00
2018-11-01T01:49:13.316Z,0.00
2018-11-01T01:50:13.392Z,0.00
2018-11-01T01:51:13.420Z,0.00
2018-11-01T01:52:13.475Z,0.00
2018-11-01T01:53:13.519Z,0.00
2018-11-01T01:54:13.530Z,0.00
2018-11-01T01:55:13.573Z,0.00
2018-11-01T01:56:13.636Z,0.00
2018-11-01T01:57:13.666Z,0.00
2018-11-01T01:58:13.708Z,0.00
2018-11-01T01:59:13.752Z,0.00
2018-11-01T02:00:13.796Z,0.00
2018-11-01T02:01:13.858Z,0.00
2018-11-01T02:02:13.906Z,0.00
2018-11-01T02:03:13.928Z,0.00
2018-11-01T02:04:13.974Z,0.00
2018-11-01T02:05:14.019Z,0.00
2018-11-01T02:06:14.082Z,0.00
2018-11-01T02:07:14.130Z,0.00
2018-11-01T02:08:14.161Z,0.00
2018-11-01T02:09:14.193Z,0.00
2018-11-01T02:10:14.247Z,0.00
2018-11-01T02:11:14.281Z,0.00
2018-11-01T02:12:14.349Z,0.00
2018-11-01T02:13:14.393Z,0.00
2018-11-01T02:14:14.416Z,0.00
2018-11-01T02:15:14.468Z,0.00
2018-11-01T02:16:14.504Z,0.00
2018-11-01T02:17:14.551Z,0.00
2018-11-01T02:18:16.425Z,0.00
2018-11-01T02:19:14.639Z,0.00
2018-11-01T02:20:14.691Z,0.00
2018-11-01T02:21:14.740Z,0.00
2018-11-01T02:22:14.895Z,0.00
2018-11-01T02:23:14.837Z,0.00
2018-11-01T02:24:14.857Z,0.00
2018-11-01T02:25:14.904Z,0.00
2018-11-01T02:26:14.978Z,0.00
2018-11-01T02:27:14.998Z,0.00
2018-11-01T02:28:15.036Z,0.00
2018-11-01T02:29:15.078Z,0.00
2018-11-01T02:30:15.119Z,0.00
2018-11-01T02:31:15.193Z,0.00
2018-11-01T02:32:15.212Z,0.00
2018-11-01T02:33:15.258Z,0.00
2018-11-01T02:34:15.329Z,0.00
2018-11-01T02:35:15.351Z,0.00
2018-11-01T02:36:15.388Z,0.00
2018-11-01T02:37:15.431Z,0.00
2018-11-01T02:38:15.515Z,0.00
2018-11-01T02:39:15.544Z,0.00
2018-11-01T02:40:15.566Z,0.00
2018-11-01T02:41:15.611Z,0.00
2018-11-01T02:42:15.655Z,0.00
2018-11-01T02:43:15.726Z,0.00
2018-11-01T02:44:15.745Z,0.00
2018-11-01T02:45:15.793Z,0.00
2018-11-01T02:46:15.833Z,0.00
2018-11-01T02:47:15.901Z,0.00
2018-11-01T02:48:15.925Z,0.00
2018-11-01T02:49:15.977Z,0.00
2018-11-01T02:50:16.007Z,0.00
2018-11-01T02:51:16.082Z,0.00
2018-11-01T02:52:16.129Z,0.00
2018-11-01T02:53:16.165Z,0.00
2018-11-01T02:54:16.183Z,0.00
2018-11-01T02:55:16.229Z,0.00
2018-11-01T02:56:16.268Z,0.00
2018-11-01T02:57:16.316Z,0.00
2018-11-01T02:58:16.380Z,0.00
2018-11-01T02:59:16.400Z,0.00
2018-11-01T03:00:16.446Z,0.00
2018-11-01T03:01:16.491Z,0.00
2018-11-01T03:02:16.544Z,0.00
2018-11-01T03:03:16.598Z,0.00
2018-11-01T03:04:16.627Z,0.00
2018-11-01T03:05:16.708Z,0.00
2018-11-01T03:06:16.710Z,0.00
2018-11-01T03:07:17.735Z,0.00
2018-11-01T03:08:17.427Z,0.00
2018-11-01T03:09:17.275Z,0.00
2018-11-01T03:10:17.463Z,0.00
2018-11-01T03:11:16.928Z,0.00
2018-11-01T03:12:16.990Z,0.00
2018-11-01T03:13:17.014Z,0.00
2018-11-01T03:14:17.061Z,0.00
2018-11-01T03:15:17.136Z,0.00
2018-11-01T03:16:17.152Z,0.00
2018-11-01T03:17:17.248Z,0.00
2018-11-01T03:18:17.238Z,0.00
2018-11-01T03:19:17.277Z,0.00
2018-11-01T03:20:17.351Z,0.00
2018-11-01T03:21:17.388Z,0.00
2018-11-01T03:22:17.407Z,0.00
2018-11-01T03:23:17.453Z,0.00
2018-11-01T03:24:18.428Z,0.00
2018-11-01T03:25:17.539Z,0.00
2018-11-01T03:26:17.659Z,0.00
2018-11-01T03:27:17.630Z,0.00
2018-11-01T03:28:17.681Z,0.00
2018-11-01T03:29:17.718Z,0.00
2018-11-01T03:30:17.789Z,0.00
2018-11-01T03:31:18.447Z,0.00
2018-11-01T03:32:17.847Z,0.00
2018-11-01T03:33:17.894Z,0.00
2018-11-01T03:34:17.958Z,0.00
2018-11-01T03:35:18.021Z,0.00
2018-11-01T03:36:18.021Z,0.00
2018-11-01T03:37:18.075Z,0.00
2018-11-01T03:38:18.342Z,0.00
2018-11-01T03:39:18.152Z,0.00
2018-11-01T03:40:18.222Z,0.00
2018-11-01T03:41:18.240Z,0.00
2018-11-01T03:42:18.286Z,0.00
2018-11-01T03:43:18.373Z,0.00
2018-11-01T03:44:18.370Z,0.00
2018-11-01T03:45:18.418Z,0.00
2018-11-01T03:46:19.231Z,0.00
2018-11-01T03:47:18.504Z,0.00
2018-11-01T03:48:18.575Z,0.00
2018-11-01T03:49:18.589Z,0.00
2018-11-01T03:50:19.234Z,0.00
2018-11-01T03:51:18.698Z,0.00
2018-11-01T03:52:18.752Z,0.00
2018-11-01T03:53:18.786Z,0.00
2018-11-01T03:54:18.816Z,0.00
2018-11-01T03:55:18.850Z,0.00
2018-11-01T03:56:18.900Z,0.00
2018-11-01T03:57:18.946Z,0.00
2018-11-01T03:58:19.002Z,0.00
2018-11-01T03:59:19.039Z,0.00
2018-11-01T04:00:19.070Z,0.00
2018-11-01T04:01:19.120Z,0.00
2018-11-01T04:02:19.156Z,0.00
2018-11-01T04:03:19.246Z,0.00
2018-11-01T04:04:19.244Z,0.00
2018-11-01T04:05:19.310Z,0.00
2018-11-01T04:06:19.336Z,0.00
2018-11-01T04:07:19.397Z,0.00
2018-11-01T04:08:19.422Z,0.00
2018-11-01T04:09:19.489Z,0.00
2018-11-01T04:10:19.531Z,0.00
2018-11-01T04:11:19.554Z,0.00
2018-11-01T04:12:19.598Z,0.00
2018-11-01T04:13:19.684Z,0.00
2018-11-01T04:14:19.702Z,0.00
2018-11-01T04:15:19.818Z,0.00
2018-11-01T04:16:19.770Z,0.00
2018-11-01T04:17:19.813Z,0.00
2018-11-01T04:18:19.858Z,0.00
2018-11-01T04:19:19.906Z,0.00
2018-11-01T04:20:19.964Z,0.00
2018-11-01T04:21:19.990Z,0.00
2018-11-01T04:22:20.035Z,0.00
2018-11-01T04:23:20.125Z,0.00
2018-11-01T04:24:20.127Z,0.00
2018-11-01T04:25:20.188Z,0.00
2018-11-01T04:26:20.272Z,0.00
2018-11-01T04:27:20.258Z,0.00
2018-11-01T04:28:20.293Z,0.00
2018-11-01T04:29:20.353Z,0.00
2018-11-01T04:30:20.383Z,0.00
2018-11-01T04:31:20.452Z,0.00
2018-11-01T04:32:20.474Z,0.00
2018-11-01T04:33:20.647Z,0.00
2018-11-01T04:34:20.571Z,0.00
2018-11-01T04:35:20.620Z,0.00
2018-11-01T04:36:20.716Z,0.00
2018-11-01T04:37:20.699Z,0.00
2018-11-01T04:38:20.729Z,0.00
2018-11-01T04:39:20.776Z,0.00
2018-11-01T04:40:20.882Z,0.00
2018-11-01T04:41:20.884Z,0.00
2018-11-01T04:42:20.906Z,0.00
2018-11-01T04:43:20.952Z,0.00
2018-11-01T04:44:21.013Z,0.00
2018-11-01T04:45:21.929Z,0.00
2018-11-01T04:46:21.121Z,0.00
2018-11-01T04:47:21.187Z,0.00
2018-11-01T04:48:21.194Z,0.00
2018-11-01T04:49:21.209Z,0.00
2018-11-01T04:50:21.261Z,0.00
2018-11-01T04:51:21.298Z,0.00
2018-11-01T04:52:21.337Z,0.00
2018-11-01T04:53:21.405Z,0.00
2018-11-01T04:54:21.432Z,0.00
2018-11-01T04:55:21.471Z,0.00
2018-11-01T04:56:21.523Z,0.00
2018-11-01T04:57:22.429Z,0.00
2018-11-01T04:58:21.624Z,0.00
2018-11-01T04:59:21.727Z,0.00
2018-11-01T05:00:21.688Z,0.00
2018-11-01T05:01:21.732Z,0.00
2018-11-01T05:02:21.778Z,0.00
2018-11-01T05:03:21.863Z,0.00
2018-11-01T05:04:21.862Z,0.00
2018-11-01T05:05:21.909Z,0.00
2018-11-01T05:06:21.955Z,0.00
2018-11-01T05:07:21.993Z,0.00
2018-11-01T05:08:22.065Z,0.00
2018-11-01T05:09:22.079Z,0.00
2018-11-01T05:10:22.158Z,0.00
2018-11-01T05:11:22.185Z,0.00
2018-11-01T05:12:22.222Z,0.00
2018-11-01T05:13:22.261Z,0.00
2018-11-01T05:14:22.298Z,0.00
2018-11-01T05:15:22.403Z,0.00
2018-11-01T05:16:22.388Z,0.00
2018-11-01T05:17:22.435Z,0.00
2018-11-01T05:18:23.430Z,0.00
2018-11-01T05:19:22.929Z,0.00
2018-11-01T05:20:22.659Z,0.00
2018-11-01T05:21:22.604Z,0.00
2018-11-01T05:22:22.648Z,0.00
2018-11-01T05:23:22.700Z,0.00
2018-11-01T05:24:22.734Z,0.00
2018-11-01T05:25:23.314Z,0.00
2018-11-01T05:26:22.822Z,0.00
2018-11-01T05:27:23.434Z,0.00
2018-11-01T05:28:22.912Z,0.00
2018-11-01T05:29:23.008Z,0.00
2018-11-01T05:30:23.008Z,0.00
2018-11-01T05:31:23.073Z,0.00
2018-11-01T05:32:23.082Z,0.00
2018-11-01T05:33:23.129Z,0.00
2018-11-01T05:34:23.174Z,0.00
2018-11-01T05:35:23.223Z,0.00
2018-11-01T05:36:23.278Z,0.00
2018-11-01T05:37:23.301Z,0.00
2018-11-01T05:38:23.357Z,0.00
2018-11-01T05:39:24.430Z,0.00
2018-11-01T05:40:23.437Z,0.00
2018-11-01T05:41:23.496Z,0.00
2018-11-01T05:42:23.569Z,0.00
2018-11-01T05:43:23.562Z,0.00
2018-11-01T05:44:23.616Z,0.00
2018-11-01T05:45:23.659Z,0.00
2018-11-01T05:46:23.693Z,0.00
2018-11-01T05:47:23.759Z,0.00
2018-11-01T05:48:25.430Z,0.00
2018-11-01T05:49:24.430Z,0.00
2018-11-01T05:50:23.880Z,0.00
2018-11-01T05:51:23.912Z,0.00
2018-11-01T05:52:23.976Z,0.00
2018-11-01T05:53:24.026Z,0.00
2018-11-01T05:54:25.431Z,0.00
2018-11-01T05:55:24.931Z,0.00
2018-11-01T05:56:24.233Z,0.00
2018-11-01T05:57:24.175Z,0.00
2018-11-01T05:58:24.216Z,0.00
2018-11-01T05:59:24.279Z,0.00
2018-11-01T06:00:24.304Z,0.00
2018-11-01T06:01:24.349Z,0.00
2018-11-01T06:02:24.398Z,0.00
2018-11-01T06:03:24.435Z,0.00
2018-11-01T06:04:24.498Z,0.00
2018-11-01T06:05:24.580Z,0.00
2018-11-01T06:06:24.564Z,0.00
2018-11-01T06:07:24.626Z,0.00
2018-11-01T06:08:24.658Z,0.00
2018-11-01T06:09:24.724Z,0.00
2018-11-01T06:10:24.741Z,0.00
2018-11-01T06:11:24.790Z,0.00
2018-11-01T06:12:24.932Z,0.00
2018-11-01T06:13:24.896Z,0.00
2018-11-01T06:14:24.937Z,0.00
2018-11-01T06:15:24.965Z,0.00
2018-11-01T06:16:25.001Z,0.00
2018-11-01T06:17:25.052Z,0.00
2018-11-01T06:18:25.733Z,0.00
2018-11-01T06:19:25.178Z,0.00
2018-11-01T06:20:25.190Z,0.00
2018-11-01T06:21:25.220Z,0.00
2018-11-01T06:22:25.283Z,5.63
2018-11-01T06:23:25.309Z,5.63
2018-11-01T06:24:25.932Z,5.63
2018-11-01T06:25:25.397Z,5.63
2018-11-01T06:26:25.534Z,5.63
2018-11-01T06:27:25.503Z,5.63
2018-11-01T06:28:25.540Z,5.63
2018-11-01T06:29:25.567Z,5.63
2018-11-01T06:30:25.717Z,5.63
2018-11-01T06:31:25.662Z,5.63
2018-11-01T06:32:25.728Z,5.63
2018-11-01T06:33:25.749Z,5.63
2018-11-01T06:34:25.788Z,5.63
2018-11-01T06:35:25.837Z,5.63
2018-11-01T06:36:25.883Z,5.63
2018-11-01T06:37:26.472Z,11.25
2018-11-01T06:38:25.992Z,11.25
2018-11-01T06:39:26.013Z,11.25
2018-11-01T06:40:26.064Z,11.25
2018-11-01T06:41:26.095Z,11.25
2018-11-01T06:42:26.137Z,11.25
2018-11-01T06:43:26.208Z,16.88
2018-11-01T06:44:26.256Z,16.88
2018-11-01T06:45:26.278Z,16.88
2018-11-01T06:46:26.322Z,16.88
2018-11-01T06:47:26.368Z,16.88
2018-11-01T06:48:26.433Z,22.50
2018-11-01T06:49:26.482Z,22.50
2018-11-01T06:50:26.486Z,22.50
2018-11-01T06:51:26.949Z,22.50
2018-11-01T06:52:26.603Z,22.50
2018-11-01T06:53:26.622Z,22.50
2018-11-01T06:54:27.456Z,28.13
2018-11-01T06:55:26.708Z,28.13
2018-11-01T06:56:26.750Z,28.13
2018-11-01T06:57:27.741Z,28.13
2018-11-01T06:58:26.975Z,33.75
2018-11-01T06:59:26.950Z,33.75
2018-11-01T07:00:26.934Z,39.38
2018-11-01T07:01:26.970Z,39.38
2018-11-01T07:02:27.010Z,39.38
2018-11-01T07:03:27.064Z,39.38
2018-11-01T07:04:27.155Z,45.00
2018-11-01T07:05:27.173Z,45.00
2018-11-01T07:06:27.189Z,45.00
2018-11-01T07:07:27.231Z,45.00
2018-11-01T07:08:27.280Z,45.00
2018-11-01T07:09:27.345Z,45.00
2018-11-01T07:10:27.381Z,45.00
2018-11-01T07:11:27.467Z,45.00
2018-11-01T07:12:27.607Z,45.00
2018-11-01T07:13:27.502Z,45.00
2018-11-01T07:14:27.570Z,45.00
2018-11-01T07:15:27.601Z,45.00
2018-11-01T07:16:28.241Z,45.00
2018-11-01T07:17:27.855Z,45.00
2018-11-01T07:18:28.431Z,45.00
2018-11-01T07:19:27.768Z,45.00
2018-11-01T07:20:27.823Z,45.00
2018-11-01T07:21:28.843Z,45.00
2018-11-01T07:22:27.930Z,50.63
2018-11-01T07:23:27.935Z,50.63
2018-11-01T07:24:28.432Z,50.63
2018-11-01T07:25:28.134Z,50.63
2018-11-01T07:26:28.122Z,50.63
2018-11-01T07:27:28.115Z,50.63
2018-11-01T07:28:28.180Z,50.63
2018-11-01T07:29:28.242Z,50.63
2018-11-01T07:30:29.932Z,50.63
2018-11-01T07:31:28.309Z,50.63
2018-11-01T07:32:28.368Z,50.63
2018-11-01T07:33:28.387Z,50.63
2018-11-01T07:34:28.429Z,56.25
2018-11-01T07:35:28.553Z,56.25
2018-11-01T07:36:28.534Z,61.88
2018-11-01T07:37:28.561Z,61.88
2018-11-01T07:38:28.596Z,61.88
2018-11-01T07:39:28.659Z,61.88
2018-11-01T07:40:28.694Z,61.88
2018-11-01T07:41:28.731Z,61.88
2018-11-01T07:42:28.775Z,61.88
2018-11-01T07:43:28.844Z,61.88
2018-11-01T07:44:29.444Z,67.50
2018-11-01T07:45:28.906Z,67.50
2018-11-01T07:46:29.933Z,73.13
2018-11-01T07:47:29.003Z,73.13
2018-11-01T07:48:29.973Z,73.13
2018-11-01T07:49:29.090Z,73.13
2018-11-01T07:50:29.155Z,73.13
2018-11-01T07:51:29.172Z,73.13
2018-11-01T07:52:29.215Z,73.13
2018-11-01T07:53:29.287Z,73.13
2018-11-01T07:54:29.303Z,73.13
2018-11-01T07:55:29.934Z,73.13
2018-11-01T07:56:29.400Z,73.13
2018-11-01T07:57:29.437Z,73.13
2018-11-01T07:58:29.603Z,73.13
2018-11-01T07:59:29.523Z,78.75
2018-11-01T08:00:30.433Z,84.38
2018-11-01T08:01:29.641Z,90.00
2018-11-01T08:02:29.667Z,95.63
2018-11-01T08:03:29.721Z,95.63
2018-11-01T08:04:29.745Z,95.63
2018-11-01T08:05:29.796Z,95.63
2018-11-01T08:06:29.842Z,101.25
2018-11-01T08:07:29.896Z,106.88
2018-11-01T08:08:29.963Z,106.88
2018-11-01T08:09:29.973Z,112.50
2018-11-01T08:10:30.013Z,118.13
2018-11-01T08:11:30.067Z,129.38
2018-11-01T08:12:30.103Z,135.00
2018-11-01T08:13:30.163Z,140.63
2018-11-01T08:14:30.249Z,146.25
2018-11-01T08:15:30.265Z,151.88
2018-11-01T08:16:30.295Z,146.25
2018-11-01T08:17:30.330Z,140.63
2018-11-01T08:18:30.368Z,140.63
2018-11-01T08:19:30.451Z,140.63
2018-11-01T08:20:30.554Z,140.63
2018-11-01T08:21:30.503Z,135.00
2018-11-01T08:22:30.547Z,129.38
2018-11-01T08:23:31.433Z,118.13
2018-11-01T08:24:30.643Z,118.13
2018-11-01T08:25:31.438Z,123.75
2018-11-01T08:26:30.720Z,129.38
2018-11-01T08:27:30.765Z,129.38
2018-11-01T08:28:30.891Z,123.75
2018-11-01T08:29:30.861Z,118.13
2018-11-01T08:30:30.919Z,118.13
2018-11-01T08:31:30.954Z,112.50
2018-11-01T08:32:30.988Z,106.88
2018-11-01T08:33:31.066Z,95.63
2018-11-01T08:34:31.936Z,95.63
2018-11-01T08:35:31.134Z,112.50
2018-11-01T08:36:31.168Z,118.13
2018-11-01T08:37:31.217Z,123.75
2018-11-01T08:38:31.300Z,129.38
2018-11-01T08:39:31.973Z,135.00
2018-11-01T08:40:31.939Z,135.00
2018-11-01T08:41:31.398Z,135.00
2018-11-01T08:42:31.939Z,135.00
2018-11-01T08:43:31.507Z,135.00
2018-11-01T08:44:31.527Z,135.00
2018-11-01T08:45:31.577Z,135.00
2018-11-01T08:46:32.440Z,140.63
2018-11-01T08:47:31.684Z,146.25
2018-11-01T08:48:31.730Z,157.50
2018-11-01T08:49:31.770Z,157.50
2018-11-01T08:50:31.800Z,163.13
2018-11-01T08:51:31.879Z,157.50
2018-11-01T08:52:31.934Z,157.50
2018-11-01T08:53:32.437Z,157.50
2018-11-01T08:54:32.435Z,157.50
2018-11-01T08:55:32.053Z,151.88
2018-11-01T08:56:32.065Z,140.63
2018-11-01T08:57:32.120Z,140.63
2018-11-01T08:58:32.324Z,140.63
2018-11-01T08:59:32.214Z,135.00
2018-11-01T09:00:32.277Z,129.38
2018-11-01T09:01:32.951Z,123.75
2018-11-01T09:02:32.340Z,118.13
2018-11-01T09:03:32.399Z,112.50
2018-11-01T09:04:32.429Z,106.88
2018-11-01T09:05:32.606Z,106.88
2018-11-01T09:06:32.529Z,112.50
2018-11-01T09:07:32.657Z,118.13
2018-11-01T09:08:32.648Z,123.75
2018-11-01T09:09:33.468Z,123.75
2018-11-01T09:10:33.572Z,123.75
2018-11-01T09:11:32.752Z,118.13
2018-11-01T09:12:32.812Z,106.88
2018-11-01T09:13:32.859Z,101.25
2018-11-01T09:14:32.942Z,95.63
2018-11-01T09:15:32.964Z,101.25
2018-11-01T09:16:33.970Z,112.50
2018-11-01T09:17:33.938Z,129.38
2018-11-01T09:18:33.069Z,140.63
2018-11-01T09:19:33.112Z,151.88
2018-11-01T09:20:33.158Z,174.38
2018-11-01T09:21:33.234Z,191.25
2018-11-01T09:22:33.940Z,196.88
2018-11-01T09:23:33.317Z,213.75
2018-11-01T09:24:34.441Z,202.50
2018-11-01T09:25:33.390Z,174.38
2018-11-01T09:26:33.431Z,202.50
2018-11-01T09:27:33.513Z,241.88
2018-11-01T09:28:33.537Z,275.63
2018-11-01T09:29:33.582Z,286.88
2018-11-01T09:30:33.622Z,427.50
2018-11-01T09:31:33.663Z,871.88
2018-11-01T09:32:33.745Z,1141.88
2018-11-01T09:33:33.803Z,1158.75
2018-11-01T09:34:34.444Z,1130.63
2018-11-01T09:35:33.924Z,1091.25
2018-11-01T09:36:33.914Z,1074.38
2018-11-01T09:37:33.973Z,1046.25
2018-11-01T09:38:34.010Z,1040.63
2018-11-01T09:39:34.036Z,1040.63
2018-11-01T09:40:34.111Z,1068.75
2018-11-01T09:41:34.134Z,1085.63
2018-11-01T09:42:34.311Z,1029.38
2018-11-01T09:43:34.260Z,1051.88
2018-11-01T09:44:34.282Z,1068.75
2018-11-01T09:45:34.345Z,1085.63
2018-11-01T09:46:34.616Z,1108.13
2018-11-01T09:47:34.665Z,1096.88
2018-11-01T09:48:34.516Z,1096.88
2018-11-01T09:49:34.565Z,1085.63
2018-11-01T09:50:34.617Z,1102.50
2018-11-01T09:51:34.639Z,1113.75
2018-11-01T09:52:34.687Z,1141.88
2018-11-01T09:53:34.755Z,1147.50
2018-11-01T09:54:34.790Z,1141.88
2018-11-01T09:55:35.471Z,1136.25
2018-11-01T09:56:35.087Z,1141.88
2018-11-01T09:57:34.950Z,1153.13
2018-11-01T09:58:35.041Z,1164.38
2018-11-01T09:59:35.445Z,1170.00
2018-11-01T10:00:35.124Z,1147.50
2018-11-01T10:01:35.170Z,1136.25
2018-11-01T10:02:35.211Z,1119.38
2018-11-01T10:03:35.284Z,1125.00
2018-11-01T10:04:35.304Z,1108.13
2018-11-01T10:05:35.381Z,1125.00
2018-11-01T10:06:35.406Z,1113.75
2018-11-01T10:07:35.464Z,1113.75
2018-11-01T10:08:35.515Z,1119.38
2018-11-01T10:09:35.565Z,1119.38
2018-11-01T10:10:35.635Z,1119.38
2018-11-01T10:11:35.674Z,1125.00
2018-11-01T10:12:35.720Z,1147.50
2018-11-01T10:13:35.784Z,1158.75
2018-11-01T10:14:35.822Z,1170.00
2018-11-01T10:15:36.120Z,1175.63
2018-11-01T10:16:36.046Z,1186.88
2018-11-01T10:17:36.420Z,1181.25
2018-11-01T10:18:36.036Z,1181.25
2018-11-01T10:19:36.092Z,1175.63
2018-11-01T10:20:36.138Z,1186.88
2018-11-01T10:21:36.251Z,1186.88
2018-11-01T10:22:36.333Z,1192.50
2018-11-01T10:23:36.316Z,1192.50
2018-11-01T10:24:36.351Z,1209.38
2018-11-01T10:25:36.413Z,1220.63
2018-11-01T10:26:37.456Z,1220.63
2018-11-01T10:27:36.585Z,1220.63
2018-11-01T10:28:36.568Z,1215.00
2018-11-01T10:29:36.611Z,1237.50
2018-11-01T10:30:36.672Z,1243.13
2018-11-01T10:31:36.745Z,1231.88
2018-11-01T10:32:36.797Z,1226.25
2018-11-01T10:33:36.847Z,1237.50
2018-11-01T10:34:36.918Z,1220.63
2018-11-01T10:35:36.946Z,1220.63
2018-11-01T10:36:36.988Z,1220.63
2018-11-01T10:37:37.064Z,1209.38
2018-11-01T10:38:37.117Z,1203.75
2018-11-01T10:39:37.161Z,1198.13
2018-11-01T10:40:37.218Z,1209.38
2018-11-01T10:41:37.258Z,1226.25
2018-11-01T10:42:38.976Z,1231.88
2018-11-01T10:43:37.962Z,1237.50
2018-11-01T10:44:37.412Z,1248.75
2018-11-01T10:45:37.490Z,1226.25
2018-11-01T10:46:37.532Z,1209.38
2018-11-01T10:47:37.594Z,1209.38
2018-11-01T10:48:37.644Z,1192.50
2018-11-01T10:49:37.698Z,1181.25
2018-11-01T10:50:37.753Z,1186.88
2018-11-01T10:51:37.785Z,1175.63
2018-11-01T10:52:37.836Z,1170.00
2018-11-01T10:53:38.494Z,1158.75
2018-11-01T10:54:37.960Z,1147.50
2018-11-01T10:55:38.465Z,1141.88
2018-11-01T10:56:38.062Z,1141.88
2018-11-01T10:57:38.113Z,1147.50
2018-11-01T10:58:38.165Z,1147.50
2018-11-01T10:59:38.211Z,1141.88
2018-11-01T11:00:38.349Z,1130.63
2018-11-01T11:01:38.319Z,1125.00
2018-11-01T11:02:38.370Z,1113.75
2018-11-01T11:03:38.427Z,1125.00
2018-11-01T11:04:38.514Z,1119.38
2018-11-01T11:05:38.550Z,1130.63
2018-11-01T11:06:38.664Z,1136.25
2018-11-01T11:07:38.637Z,1130.63
2018-11-01T11:08:40.471Z,1113.75
2018-11-01T11:09:39.503Z,1130.63
2018-11-01T11:10:39.507Z,1113.75
2018-11-01T11:11:38.853Z,1113.75
2018-11-01T11:12:39.974Z,1119.38
2018-11-01T11:13:38.968Z,1119.38
2018-11-01T11:14:40.037Z,1119.38
2018-11-01T11:15:39.091Z,1125.00
2018-11-01T11:16:39.163Z,1113.75
2018-11-01T11:17:39.180Z,1113.75
2018-11-01T11:18:42.006Z,1102.50
2018-11-01T11:19:39.297Z,1091.25
2018-11-01T11:20:39.620Z,1091.25
2018-11-01T11:21:39.404Z,1096.88
2018-11-01T11:22:39.444Z,1108.13
2018-11-01T11:23:39.537Z,1119.38
2018-11-01T11:24:39.542Z,1125.00
2018-11-01T11:25:39.606Z,1125.00
2018-11-01T11:26:39.675Z,1125.00
2018-11-01T11:27:39.703Z,1125.00
2018-11-01T11:28:40.480Z,1108.13
2018-11-01T11:29:39.830Z,1108.13
2018-11-01T11:30:39.895Z,1096.88
2018-11-01T11:31:39.921Z,1091.25
2018-11-01T11:32:39.989Z,1080.00
2018-11-01T11:33:40.021Z,1074.38
2018-11-01T11:34:40.074Z,1051.88
2018-11-01T11:35:40.146Z,1035.00
2018-11-01T11:36:40.179Z,1029.38
2018-11-01T11:37:40.252Z,1023.75
2018-11-01T11:38:40.998Z,1018.13
2018-11-01T11:39:40.387Z,1018.13
2018-11-01T11:40:40.405Z,1023.75
2018-11-01T11:41:40.459Z,1023.75
2018-11-01T11:42:40.512Z,1046.25
2018-11-01T11:43:40.575Z,1012.50
2018-11-01T11:44:41.486Z,939.38
2018-11-01T11:45:41.487Z,810.00
2018-11-01T11:46:40.712Z,703.13
2018-11-01T11:47:42.002Z,601.88
2018-11-01T11:48:40.874Z,506.25
2018-11-01T11:49:42.494Z,348.75
2018-11-01T11:50:40.927Z,219.38
2018-11-01T11:51:41.000Z,180.00
2018-11-01T11:52:41.494Z,168.75
2018-11-01T11:53:41.100Z,163.13
2018-11-01T11:54:41.520Z,157.50
2018-11-01T11:55:41.202Z,151.88
2018-11-01T11:56:41.237Z,146.25
2018-11-01T11:57:41.797Z,146.25
2018-11-01T11:58:41.403Z,146.25
2018-11-01T11:59:41.431Z,146.25
2018-11-01T12:00:41.490Z,146.25
2018-11-01T12:01:41.498Z,146.25
2018-11-01T12:02:41.554Z,140.63
2018-11-01T12:03:42.002Z,140.63
2018-11-01T12:04:42.294Z,140.63
2018-11-01T12:05:41.775Z,140.63
2018-11-01T12:06:43.040Z,140.63
2018-11-01T12:07:41.806Z,140.63
2018-11-01T12:08:41.848Z,140.63
2018-11-01T12:09:41.908Z,140.63
2018-11-01T12:10:42.016Z,140.63
2018-11-01T12:11:42.030Z,140.63
2018-11-01T12:12:42.060Z,140.63
2018-11-01T12:13:42.100Z,140.63
2018-11-01T12:14:42.153Z,140.63
2018-11-01T12:15:42.239Z,140.63
2018-11-01T12:16:42.297Z,140.63
2018-11-01T12:17:42.308Z,140.63
2018-11-01T12:18:42.377Z,140.63
2018-11-01T12:19:42.403Z,140.63
2018-11-01T12:20:42.459Z,140.63
2018-11-01T12:21:42.504Z,140.63
2018-11-01T12:22:42.550Z,140.63
2018-11-01T12:23:43.505Z,140.63
2018-11-01T12:24:42.656Z,140.63
2018-11-01T12:25:42.707Z,135.00
2018-11-01T12:26:42.769Z,135.00
2018-11-01T12:27:42.814Z,135.00
2018-11-01T12:28:43.013Z,135.00
2018-11-01T12:29:42.932Z,135.00
2018-11-01T12:30:42.960Z,135.00
2018-11-01T12:31:43.009Z,135.00
2018-11-01T12:32:43.053Z,135.00
2018-11-01T12:33:43.117Z,135.00
2018-11-01T12:34:43.140Z,135.00
2018-11-01T12:35:43.285Z,135.00
2018-11-01T12:36:43.258Z,135.00
2018-11-01T12:37:43.302Z,135.00
2018-11-01T12:38:43.415Z,135.00
2018-11-01T12:39:43.392Z,135.00
2018-11-01T12:40:43.486Z,135.00
2018-11-01T12:41:43.618Z,135.00
2018-11-01T12:42:43.538Z,135.00
2018-11-01T12:43:43.583Z,135.00
2018-11-01T12:44:43.642Z,135.00
2018-11-01T12:45:43.782Z,135.00
2018-11-01T12:46:43.740Z,135.00
2018-11-01T12:47:43.788Z,135.00
2018-11-01T12:48:43.832Z,135.00
2018-11-01T12:49:43.961Z,129.38
2018-11-01T12:50:43.954Z,135.00
2018-11-01T12:51:43.975Z,129.38
2018-11-01T12:52:44.035Z,129.38